METAR Data
IDs: Format: Raw Decoded Include TAF

Data at: 1958 UTC 14 Dec 2018

K11R 141935Z AUTO 30011G19KT 10SM OVC018 09/05 A3000 RMK AO2 T00920048
K11R 141915Z AUTO 31012G22KT 10SM OVC018 09/05 A3000 RMK AO2 T00900048
K11R 141855Z AUTO 30017G23KT 10SM OVC018 09/05 A3000 RMK AO2 T00880047
K11R 141835Z AUTO 31017G23KT 10SM OVC020 09/05 A3001 RMK AO2 T00870046
K11R 141815Z AUTO 31019G23KT 10SM OVC020 09/05 A3001 RMK AO2 T00900046
K11R 141755Z AUTO 30017G22KT 10SM OVC020 09/05 A3002 RMK AO2 T00900045 10092 20070
K11R 141735Z AUTO 31015G22KT 10SM OVC020 09/05 A3002 RMK AO2 T00920046
K11R 141715Z AUTO 31011KT 10SM OVC020 09/05 A3002 RMK AO2 LTG DSNT SE T00910046
K11R 141655Z AUTO 31016G24KT 10SM OVC020 09/05 A3002 RMK AO2 T00910046
K11R 141635Z AUTO 32016G24KT 10SM OVC020 09/05 A3002 RMK AO2 T00910046
K11R 141615Z AUTO 32018G23KT 10SM OVC020 09/05 A3001 RMK AO2 T00910047
K11R 141555Z AUTO 32011G20KT 10SM OVC018 09/05 A3001 RMK AO2 T00900050
K11R 141535Z AUTO 30014G24KT 10SM OVC018 09/05 A3000 RMK AO2 T00860049
K11R 141515Z AUTO 31016G22KT 10SM OVC016 08/05 A2998 RMK AO2 T00830050
K11R 141455Z AUTO 30017G22KT 10SM OVC016 08/05 A2997 RMK AO2 T00800050
K11R 141435Z AUTO 31016G22KT 10SM OVC014 08/05 A2996 RMK AO2 LTG DSNT N T00780050
K11R 141415Z AUTO 30011KT 10SM OVC014 08/05 A2995 RMK AO2 T00770051
K11R 141355Z AUTO 30015G22KT 10SM OVC014 08/05 A2995 RMK AO2 T00780053
K11R 141335Z AUTO 30014G21KT 10SM OVC014 08/06 A2994 RMK AO2 T00770055
K11R 141315Z AUTO 30013G20KT 10SM OVC012 08/06 A2992 RMK AO2 T00760056
K11R 141255Z AUTO 29013G18KT 10SM OVC012 08/06 A2992 RMK AO2 LTG DSNT NE T00750057
K11R 141235Z AUTO 30014G23KT 10SM OVC012 07/06 A2991 RMK AO2 T00720056
K11R 141215Z AUTO 29015G21KT 10SM OVC014 07/06 A2990 RMK AO2 LTG DSNT N AND NE T00700055
K11R 141155Z AUTO 29014G21KT 7SM -RA OVC014 07/05 A2989 RMK AO2 T00700053 10082 20070
K11R 141135Z AUTO 30016G24KT 7SM DZ OVC014 07/05 A2988 RMK AO2 T00710050
K11R 141115Z AUTO 29014G19KT 10SM OVC016 07/05 A2987 RMK AO2 T00740046
K11R 141055Z AUTO 29015G25KT 10SM OVC018 08/04 A2987 RMK AO2 T00760044
K11R 141035Z AUTO 28012G19KT 10SM OVC018 08/04 A2986 RMK AO2 T00750044
K11R 141015Z AUTO 28010G18KT 10SM -DZ OVC018 07/05 A2986 RMK AO2 LTG DSNT N T00730046
K11R 140955Z AUTO 28012G18KT 10SM -DZ OVC018 07/04 A2986 RMK AO2 T00730043
K11R 140935Z AUTO 29014G18KT 10SM -DZ OVC020 08/04 A2985 RMK AO2 T00750042
K11R 140915Z AUTO 29013KT 10SM OVC020 08/04 A2985 RMK AO2 T00780041
K11R 140855Z AUTO 29015G21KT 10SM OVC020 08/04 A2986 RMK AO2 T00800040
K11R 140835Z AUTO 28011G17KT 10SM OVC020 08/04 A2986 RMK AO2 T00800042
K11R 140815Z AUTO 28012KT 10SM OVC020 08/04 A2986 RMK AO2 T00770044
K11R 140755Z AUTO 28008KT 10SM OVC020 08/05 A2985 RMK AO2 T00770045
K11R 140735Z AUTO 28012G15KT 10SM OVC018 08/05 A2985 RMK AO2 T00750045
K11R 140715Z AUTO 28011G15KT 10SM OVC018 08/05 A2985 RMK AO2 T00780045
K11R 140655Z AUTO 27012G16KT 10SM OVC020 08/04 A2985 RMK AO2 T00780044
K11R 140635Z AUTO 28010G17KT 10SM OVC020 08/04 A2985 RMK AO2 T00800044
K11R 140615Z AUTO 27011G16KT 10SM -DZ OVC022 08/05 A2986 RMK AO2 T00810045
K11R 140555Z AUTO 28011G17KT 10SM OVC020 08/05 A2985 RMK AO2 T00800046 10170 20077 402380077
K11R 140535Z AUTO 26009KT 10SM OVC020 08/05 A2985 RMK AO2 T00780052
K11R 140515Z AUTO 27009G16KT 7SM -DZ BKN020 OVC026 08/05 A2985 RMK AO2 T00830049
K11R 140455Z AUTO 28012G20KT 10SM OVC025 09/04 A2985 RMK AO2 T00870041
K11R 140435Z AUTO 29013G20KT 10SM BKN027 OVC034 09/04 A2985 RMK AO2 T00900038
K11R 140415Z AUTO 29011G18KT 10SM OVC032 09/04 A2985 RMK AO2 LTG DSNT SE T00900035
K11R 140355Z AUTO 28016G21KT 10SM OVC030 10/03 A2985 RMK AO2 T00950033
K11R 140335Z AUTO 28015G20KT 10SM OVC030 10/04 A2985 RMK AO2 T00950035
K11R 140315Z AUTO 28009G16KT 10SM BKN032 09/04 A2985 RMK AO2 T00940035
K11R 140255Z AUTO 28010G18KT 10SM SCT032 09/04 A2985 RMK AO2 T00940036
K11R 140235Z AUTO 28007G18KT 10SM SCT032 10/04 A2985 RMK AO2 T00980035
K11R 140215Z AUTO 29017G22KT 10SM CLR 10/03 A2984 RMK AO2 T01030033
K11R 140155Z AUTO 28010G14KT 10SM CLR 11/04 A2983 RMK AO2 T01070036
K11R 140135Z AUTO 28011G17KT 10SM CLR 11/04 A2982 RMK AO2 T01120041
K11R 140115Z AUTO 29011G18KT 10SM CLR 12/05 A2982 RMK AO2 T01190045
K11R 140055Z AUTO 29011G21KT 10SM CLR 13/05 A2981 RMK AO2 LTG DSNT NW T01290045
K11R 140035Z AUTO 29015G27KT 10SM CLR 15/05 A2980 RMK AO2 T01450049
K11R 140015Z AUTO 28005KT 10SM CLR 16/01 A2976 RMK AO2 T01610006
K11R 132355Z AUTO 27007KT 10SM CLR 17/00 A2976 RMK AO2 T01700003 10238 20170
K11R 132335Z AUTO 27008KT 10SM CLR 18/00 A2975 RMK AO2 T01790000
K11R 132315Z AUTO 27009KT 10SM CLR 19/01 A2975 RMK AO2 T01910010
K11R 132255Z AUTO 26008G14KT 10SM SCT100 SCT120 20/02 A2974 RMK AO2 T02000020
K11R 132235Z AUTO 26006KT 10SM BKN100 BKN120 21/06 A2973 RMK AO2 T02090059
K11R 132215Z AUTO 27006KT 10SM SCT100 SCT120 21/06 A2974 RMK AO2 T02060058
K11R 132155Z AUTO 28008KT 10SM CLR 21/06 A2973 RMK AO2 T02070060
K11R 132135Z AUTO 28012G20KT 10SM CLR 22/07 A2972 RMK AO2 T02180068
K11R 132115Z AUTO 29015G24KT 10SM SCT100 22/07 A2972 RMK AO2 LTG DSNT N AND NW T02220073
K11R 132055Z AUTO 27015G20KT 10SM SCT050 SCT060 OVC100 23/08 A2972 RMK AO2 LTG DSNT NW T02340082
K11R 132035Z AUTO 29009KT 10SM OVC050 22/08 A2971 RMK AO2 LTG DSNT NW T02180083
K11R 132015Z AUTO 28007KT 10SM BKN050 OVC090 23/11 A2971 RMK AO2 T02250108
K11R 131955Z AUTO 27010G14KT 10SM SCT050 BKN090 23/11 A2971 RMK AO2 LTG DSNT NW T02300109
K11R 131935Z AUTO 27009KT 10SM BKN048 OVC090 23/11 A2971 RMK AO2 LTG DSNT NW T02260113
K11R 131915Z AUTO 27012G16KT 10SM SCT050 SCT090 24/12 A2971 RMK AO2 LTG DSNT NW T02380116
K11R 131855Z AUTO 28011G17KT 10SM SCT042 24/11 A2970 RMK AO2 T02360111
K11R 131835Z AUTO 27009KT 10SM SCT038 23/13 A2971 RMK AO2 T02340133
K11R 131815Z AUTO 26006G14KT 10SM CLR 23/14 A2972 RMK AO2 LTG DSNT N T02280141
K11R 131755Z AUTO 25006KT 10SM CLR 22/14 A2972 RMK AO2 T02220143 10224 20170
K11R 131735Z AUTO 23011KT 10SM SCT027 22/15 A2973 RMK AO2 T02210151
K11R 131715Z AUTO 23011KT 10SM SCT025 22/16 A2974 RMK AO2 T02170158
K11R 131655Z AUTO 22008KT 10SM SCT020 21/16 A2974 RMK AO2 LTG DSNT N T02120160
K11R 131635Z AUTO 22007KT 10SM SCT018 20/16 A2975 RMK AO2 LTG DSNT N T02010164
K11R 131615Z AUTO 25008G14KT 10SM BKN016 20/16 A2976 RMK AO2 T01980162
K11R 131555Z AUTO 22008KT 10SM OVC013 20/18 A2977 RMK AO2 T01990177
K11R 131535Z AUTO 21007KT 10SM BKN013 OVC023 19/18 A2977 RMK AO2 T01900181
K11R 131515Z AUTO 22007KT 10SM SCT015 BKN023 19/19 A2977 RMK AO2 LTG DSNT N T01850185
K11R 131455Z AUTO 20006KT 10SM SCT013 BKN021 BKN026 18/18 A2976 RMK AO2 T01800180
K11R 131435Z AUTO 17004KT 10SM SCT017 OVC022 18/18 A2977 RMK AO2 T01770177
K11R 131415Z AUTO 17003KT 10SM BKN022 BKN029 18/18 A2976 RMK AO2 T01770177
K11R 131355Z AUTO 18003KT 1 1/4SM BR BKN022 BKN028 BKN035 17/17 A2976 RMK AO2 T01730173
K11R 131335Z AUTO 00000KT 7SM BKN021 OVC026 18/18 A2975 RMK AO2 T01750175
K11R 131315Z AUTO 16004KT 10SM SCT021 BKN028 OVC038 18/18 A2975 RMK AO2 T01750175
K11R 131255Z AUTO 15003KT 10SM SCT004 BKN030 OVC037 18/18 A2974 RMK AO2 T01760176
K11R 131235Z AUTO 15003KT 10SM BKN004 OVC023 18/18 A2974 RMK AO2 LTG DSNT NE T01770177
K11R 131215Z AUTO 00000KT 10SM OVC004 18/18 A2974 RMK AO2 LTG DSNT E T01760176
K11R 131155Z AUTO 16004KT 10SM OVC004 18/18 A2974 RMK AO2 LTG DSNT E 60017 70017 T01760176 10187 20170
K11R 131135Z AUTO 15005KT 10SM BKN004 OVC100 18/18 A2973 RMK AO2 T01770177
K11R 131115Z AUTO 15004KT 10SM BKN004 BKN024 OVC100 18/18 A2972 RMK AO2 T01760176
K11R 131055Z AUTO 16005KT 10SM BKN004 BKN022 OVC027 18/18 A2973 RMK AO2 LTG DSNT NW THRU SE T01760176
K11R 131035Z AUTO 16003KT 10SM VCTS SCT004 BKN010 OVC027 18/18 A2974 RMK AO2 LTG DSNT NE AND E T01760176
K11R 131015Z AUTO 15003KT 10SM BKN006 OVC010 18/18 A2973 RMK AO2 LTG DSNT N THRU SE T01760176
K11R 130955Z AUTO 13003KT 10SM BKN006 BKN012 OVC021 18/18 A2974 RMK AO2 LTG DSNT N AND SE P0003 T01760176
K11R 130935Z AUTO 15003KT 10SM VCTS SCT006 BKN014 OVC028 18/18 A2975 RMK AO2 LTG DSNT N THRU SE P0003 T01770177
K11R 130915Z AUTO 18004KT 7SM -TSRA SCT014 BKN020 OVC026 18/18 A2976 RMK AO2 LTG DSNT N THRU SE P0003 T01750175
K11R 130855Z AUTO 16004KT 7SM -VCTSRA SCT013 BKN022 OVC060 17/17 A2977 RMK AO2 LTG DSNT N THRU SE P0003 60014 T01730173
K11R 130835Z AUTO 00000KT 10SM -VCTSRA SCT021 BKN038 BKN055 17/17 A2977 RMK AO2 LTG DSNT NE THRU S T01700170
K11R 130815Z AUTO 13003KT 10SM TS SCT014 BKN026 OVC110 17/17 A2979 RMK AO2 LTG DSNT ALQS T01700168